createdAt,value
2014-09-12T15:18:20.868Z,101188
2014-09-12T15:18:39.057Z,101185
2014-09-12T15:18:57.245Z,101168
2014-09-12T15:19:15.448Z,101188
2014-09-12T15:19:33.636Z,101176
2014-09-12T15:19:51.824Z,101176
2014-09-12T15:20:10.012Z,101182
2014-09-12T15:20:28.215Z,101197
2014-09-12T15:20:46.405Z,101171
2014-09-12T16:54:55.711Z,101263
2014-09-12T16:55:13.914Z,101272
2014-09-12T16:55:32.117Z,101260
2014-09-12T16:55:50.307Z,101266
2014-09-12T16:56:08.510Z,101269
2014-09-12T16:56:26.698Z,101255
2014-09-12T16:56:44.885Z,101269
2014-09-12T16:57:03.075Z,101254
2014-09-12T16:57:21.278Z,101260
2014-09-12T16:57:39.465Z,101263
2014-09-12T16:57:57.654Z,101266
2014-09-12T16:58:15.841Z,101260
2014-09-12T16:58:34.044Z,101260
2014-09-12T16:58:52.234Z,101257
2014-09-12T16:59:10.421Z,101266
2014-09-12T16:59:28.609Z,101266
2014-09-12T16:59:46.796Z,101254
2014-09-12T17:00:08.048Z,101263
2014-09-12T17:00:26.251Z,101263
2014-09-12T17:00:44.439Z,101260
2014-09-12T17:01:02.644Z,101260
2014-09-12T17:01:20.832Z,101257
2014-09-12T17:01:39.019Z,101260
2014-09-12T17:01:57.209Z,101263
2014-09-12T17:02:15.412Z,101260
2014-09-12T17:02:33.599Z,101257
2014-09-12T17:02:51.787Z,101257
2014-09-12T17:03:09.976Z,101266
2014-09-12T17:03:28.179Z,101272
2014-09-12T17:03:46.367Z,101263
2014-09-12T17:04:04.556Z,101254
2014-09-12T17:04:22.744Z,101252
2014-09-12T17:04:40.931Z,101266
2014-09-12T17:04:59.136Z,101252
2014-09-12T17:05:20.183Z,101257
2014-09-12T17:05:38.371Z,101266
2014-09-12T17:05:56.576Z,101257
2014-09-12T17:06:14.779Z,101272
2014-09-12T17:07:08.562Z,101272
2014-09-12T17:07:26.750Z,101274
2014-09-12T17:07:44.937Z,101257
2014-09-12T17:08:03.127Z,101257
2014-09-12T17:08:21.314Z,101272
2014-09-12T17:08:39.502Z,101263
2014-09-12T17:08:57.689Z,101269
2014-09-12T17:09:15.894Z,101274
2014-09-12T17:09:34.082Z,101266
2014-09-12T17:09:52.269Z,101252
2014-09-12T17:10:10.459Z,101269
2014-09-12T17:10:28.646Z,101263
2014-09-12T17:10:46.850Z,101272
2014-09-12T17:11:05.039Z,101274
2014-09-12T17:11:23.227Z,101283
2014-09-12T17:11:41.414Z,101274
2014-09-12T17:11:59.602Z,101272
2014-09-12T17:12:17.791Z,101274
2014-09-12T17:12:35.994Z,101280
2014-09-12T17:12:54.182Z,101272
2014-09-12T17:13:12.371Z,101269
2014-09-12T17:13:30.559Z,101277
2014-09-12T17:13:48.746Z,101277
2014-09-12T17:14:06.936Z,101277
2014-09-12T17:14:25.139Z,101274
2014-09-12T17:14:43.326Z,101277
2014-09-12T17:15:01.516Z,101280
2014-09-12T17:15:19.750Z,101289
2014-09-12T17:15:37.938Z,101274
2014-09-12T17:15:56.125Z,101274
2014-09-12T17:16:14.330Z,101274
2014-09-12T17:16:32.518Z,101280
2014-09-12T17:16:50.705Z,101280
2014-09-12T17:17:08.910Z,101286
2014-09-12T17:17:27.098Z,101294
2014-09-12T17:17:45.285Z,101280
2014-09-12T17:18:03.473Z,101283
2014-09-12T17:18:21.661Z,101277
2014-09-12T17:18:39.865Z,101292
2014-09-12T17:18:58.052Z,101271
2014-09-12T17:19:16.243Z,101269
2014-09-12T17:19:34.430Z,101286
2014-09-12T17:19:52.618Z,101286
2014-09-12T17:20:10.807Z,101286
2014-09-12T17:20:28.995Z,101286
2014-09-12T17:20:47.198Z,101289
2014-09-12T17:21:05.385Z,101297
2014-09-12T17:21:23.574Z,101286
2014-09-12T17:21:41.761Z,101283
2014-09-12T17:21:59.949Z,101292
2014-09-12T17:22:18.138Z,101277
2014-09-12T17:22:36.341Z,101274
2014-09-12T17:22:54.529Z,101289
2014-09-12T17:23:12.718Z,101280
2014-09-12T17:23:30.906Z,101283
2014-09-12T17:23:49.093Z,101292
2014-09-12T17:24:07.281Z,101277
2014-09-12T17:24:25.470Z,101286
2014-09-12T17:24:43.673Z,101280
2014-09-12T17:25:01.861Z,101280
2014-09-12T17:25:20.050Z,101286
2014-09-12T17:25:38.238Z,101292
2014-09-12T20:21:56.077Z,101330
2014-09-12T20:22:14.264Z,101327
2014-09-12T20:22:32.468Z,101333
2014-09-12T20:22:50.655Z,101322
2014-09-12T20:23:08.860Z,101313
2014-09-12T20:23:27.048Z,101327
2014-09-12T20:23:45.251Z,101322
2014-09-12T20:24:03.440Z,101330
2014-09-12T20:24:21.643Z,101316
2014-09-12T20:24:39.831Z,101327
2014-09-12T20:24:58.034Z,101328
2014-09-12T20:25:16.224Z,101325
2014-09-12T20:25:34.427Z,101316
2014-09-12T20:25:52.614Z,101319
2014-09-12T20:26:10.819Z,101328
2014-09-12T20:26:29.007Z,101336
2014-09-12T20:26:47.210Z,101308
2014-09-12T20:27:05.399Z,101319
2014-09-12T20:27:23.603Z,101319
2014-09-12T20:27:41.790Z,101319
2014-09-12T20:27:59.993Z,101319
2014-09-12T20:28:18.183Z,101322
2014-09-12T20:28:36.386Z,101319
2014-09-12T20:28:54.573Z,101328
2014-09-12T20:29:12.778Z,101322
2014-09-12T20:29:30.966Z,101322
2014-09-12T20:29:49.169Z,101319
2014-09-12T20:30:07.359Z,101319
2014-09-12T20:30:25.562Z,101314
2014-09-12T20:30:43.765Z,101322
2014-09-12T20:31:01.952Z,101316
2014-09-12T20:31:20.157Z,101316
2014-09-12T20:31:38.345Z,101322
2014-09-12T20:31:56.548Z,101325
2014-09-12T20:32:14.738Z,101328
2014-09-12T20:32:32.941Z,101319
2014-09-12T20:32:51.128Z,101319
2014-09-12T20:33:09.333Z,101314
2014-09-12T20:33:27.521Z,101319
2014-09-12T20:33:45.724Z,101322
2014-09-12T20:34:03.911Z,101314
2014-09-12T20:34:22.101Z,101322
2014-09-12T20:34:40.304Z,101308
2014-09-12T20:34:58.507Z,101331
2014-09-12T20:35:16.696Z,101322
2014-09-12T20:35:34.883Z,101317
2014-09-12T20:35:53.086Z,101317
2014-09-12T20:36:11.291Z,101322
2014-09-12T20:36:29.479Z,101311
2014-09-12T20:36:47.682Z,101325
2014-09-12T20:37:05.885Z,101320
2014-09-12T20:37:24.075Z,101317
2014-09-12T20:37:42.278Z,101322
2014-09-12T20:38:00.465Z,101317
2014-09-12T20:38:18.670Z,101322
2014-09-12T20:38:36.858Z,101325
2014-09-12T20:38:55.061Z,101325
2014-09-12T20:39:13.251Z,101320
2014-09-12T20:39:31.438Z,101320
2014-09-12T20:39:49.641Z,101317
2014-09-12T20:40:07.844Z,101320
2014-09-12T20:40:46.018Z,101328
2014-09-12T20:41:04.221Z,101317
2014-09-12T20:41:22.426Z,101331
2014-09-12T20:41:40.614Z,101328
2014-09-12T20:41:58.817Z,101320
2014-09-12T20:42:17.022Z,101326
2014-09-12T20:42:35.210Z,101329
2014-09-12T20:42:53.413Z,101323
2014-09-12T20:43:11.602Z,101329
2014-09-12T20:43:29.805Z,101317
2014-09-12T20:43:48.009Z,101317
2014-09-12T20:44:06.212Z,101331
2014-09-12T20:44:24.401Z,101323
2014-09-12T20:44:42.604Z,101329
2014-09-12T20:45:00.792Z,101320
2014-09-12T20:45:18.997Z,101317
2014-09-12T20:45:37.200Z,101326
2014-09-12T20:45:55.450Z,101320
2014-09-12T20:46:13.654Z,101332
2014-09-12T20:46:31.857Z,101320
2014-09-12T20:46:50.060Z,101329
2014-09-12T20:47:08.310Z,101323
2014-09-12T20:47:26.501Z,101326
2014-09-12T20:47:44.720Z,101317
2014-09-12T20:48:02.923Z,101326
2014-09-12T20:48:21.112Z,101312
2014-09-12T20:48:39.315Z,101329
2014-09-12T20:48:57.534Z,101323
2014-09-12T20:49:15.771Z,101317
2014-09-12T20:49:33.974Z,101317
2014-09-12T20:49:52.177Z,101320
2014-09-12T20:50:10.380Z,101329
2014-09-12T20:50:28.585Z,101312
2014-09-12T20:50:46.773Z,101320
2014-09-12T20:51:04.976Z,101323
2014-09-12T20:51:23.181Z,101312
2014-09-12T20:51:41.384Z,101315
2014-09-12T20:51:59.587Z,101326
2014-09-12T20:52:17.777Z,101320
2014-09-12T20:52:35.980Z,101315
2014-09-12T20:52:54.183Z,101320
2014-09-12T20:53:12.370Z,101318
2014-09-12T20:53:30.575Z,101320
2014-09-12T20:53:48.779Z,101312
2014-09-12T20:54:06.982Z,101309
2014-09-12T20:54:25.171Z,101318
2014-09-12T20:54:43.374Z,101318
2014-09-12T20:55:01.577Z,101309
2014-09-12T20:55:19.783Z,101309
2014-09-12T20:55:37.986Z,101315
2014-09-12T20:55:56.189Z,101318
2014-09-12T20:56:14.376Z,101309
2014-09-12T20:56:32.581Z,101329
2014-09-12T20:56:50.785Z,101326
2014-09-12T20:57:08.988Z,101315
2014-09-12T20:57:27.193Z,101318
2014-09-12T20:57:45.396Z,101315
2014-09-12T20:58:03.630Z,101318
2014-09-12T20:58:21.819Z,101321
2014-09-12T20:58:40.022Z,101318
2014-09-12T20:58:58.225Z,101318
2014-09-12T20:59:19.602Z,101323
2014-09-12T20:59:37.805Z,101326
2014-09-12T20:59:55.993Z,101318
2014-09-12T21:00:14.196Z,101312
2014-09-12T21:00:32.401Z,101309
2014-09-12T21:00:50.588Z,101321
2014-09-12T21:01:08.792Z,101315
2014-09-12T21:01:26.997Z,101315
2014-09-12T21:01:45.200Z,101309
2014-09-12T21:02:03.403Z,101312
2014-09-12T21:02:21.655Z,101321
2014-09-12T21:02:39.921Z,101315
2014-09-12T21:02:58.108Z,101315
2014-09-12T21:03:16.312Z,101321
2014-09-12T21:03:34.515Z,101318
2014-09-12T21:03:52.703Z,101315
2014-09-12T21:04:10.906Z,101324
2014-09-12T21:04:29.111Z,101312
2014-09-12T21:04:47.314Z,101312
2014-09-12T21:05:05.502Z,101312
2014-09-12T21:05:23.722Z,101309
2014-09-12T21:05:41.926Z,101312
2014-09-12T21:06:00.113Z,101315
2014-09-12T21:06:18.316Z,101309
2014-09-12T21:06:36.521Z,101312
2014-09-12T21:06:54.709Z,101315
2014-09-12T21:07:12.912Z,101315
2014-09-12T21:07:31.117Z,101318
2014-09-12T21:07:49.320Z,101318
2014-09-12T21:08:07.508Z,101321
2014-09-12T21:08:25.711Z,101312
2014-09-12T21:08:43.916Z,101321
2014-09-12T21:09:02.103Z,101309
2014-09-12T21:09:20.307Z,101318
2014-09-12T21:09:38.496Z,101315
2014-09-12T21:09:56.699Z,101315
2014-09-12T21:10:14.902Z,101321
2014-09-12T21:10:33.093Z,101315
2014-09-12T21:10:51.296Z,101318
2014-09-12T21:11:09.483Z,101315
2014-09-12T21:11:27.687Z,101315
2014-09-12T21:11:45.891Z,101318
2014-09-12T21:12:04.078Z,101315
2014-09-12T21:12:22.281Z,101312
2014-09-12T21:12:40.472Z,101318
2014-09-12T21:12:58.675Z,101324
2014-09-12T21:13:16.878Z,101315
2014-09-12T21:13:35.081Z,101312
2014-09-12T21:13:53.271Z,101324
2014-09-12T21:14:11.474Z,101318
2014-09-12T21:14:29.677Z,101315
2014-09-12T21:14:47.865Z,101315
2014-09-12T21:15:06.069Z,101321
2014-09-12T21:15:24.272Z,101318
2014-09-12T21:15:42.475Z,101310
2014-09-12T21:16:00.664Z,101312
2014-09-12T21:16:18.867Z,101318
2014-09-12T21:16:37.055Z,101318
2014-09-12T21:16:55.261Z,101318
2014-09-12T21:17:13.464Z,101321
2014-09-12T21:17:31.652Z,101318
2014-09-12T21:17:49.855Z,101318
2014-09-12T21:18:08.059Z,101327
2014-09-12T21:18:26.246Z,101318
2014-09-12T21:18:44.450Z,101312
2014-09-12T21:19:02.639Z,101315
2014-09-12T21:19:20.842Z,101335
2014-09-12T21:19:39.030Z,101330
2014-09-12T21:57:19.243Z,101342
2014-09-12T21:57:37.446Z,101333
2014-09-12T21:57:55.636Z,101342
2014-09-12T21:58:13.839Z,101345
2014-09-12T21:58:32.089Z,101342
2014-09-12T21:58:50.292Z,101345
2014-09-12T21:59:08.482Z,101345
2014-09-12T21:59:26.685Z,101347
2014-09-12T21:59:44.872Z,101344
2014-09-12T22:00:03.078Z,101344
2014-09-12T22:00:21.282Z,101344
2014-09-12T22:00:39.532Z,101342
2014-09-12T22:00:57.690Z,101336
2014-09-12T22:01:15.893Z,101344
2014-09-12T22:01:34.127Z,101350
2014-09-12T22:01:52.315Z,101339
2014-09-12T22:02:10.504Z,101341
2014-09-12T22:02:28.723Z,101344
2014-09-12T22:02:46.911Z,101344
2014-09-12T22:03:05.100Z,101347
2014-09-12T22:03:23.303Z,101344
2014-09-12T22:03:41.491Z,101339
2014-09-12T22:03:59.695Z,101341
2014-09-12T22:04:17.882Z,101338
2014-09-12T22:04:36.085Z,101341
2014-09-12T22:04:54.289Z,101358
2014-09-12T22:05:12.478Z,101344
2014-09-12T22:05:30.681Z,101344
2014-09-12T22:05:48.869Z,101350
2014-09-12T22:06:07.074Z,101336
2014-09-12T22:06:25.261Z,101338
2014-09-12T22:06:43.464Z,101341
2014-09-12T22:07:01.654Z,101347
2014-09-12T22:07:19.857Z,101355
2014-09-12T22:07:38.060Z,101338
2014-09-12T22:07:56.263Z,101338
2014-09-12T22:08:14.468Z,101350
2014-09-12T22:08:32.656Z,101344
2014-09-12T22:08:50.843Z,101355
2014-09-12T22:09:09.064Z,101350
2014-09-12T22:09:27.267Z,101350
2014-09-12T22:09:45.455Z,101355
2014-09-12T22:10:03.643Z,101350
2014-09-12T22:10:21.846Z,101355
2014-09-12T22:10:40.050Z,101358
2014-09-12T22:10:58.237Z,101350
2014-09-12T22:11:16.442Z,101355
2014-09-12T22:11:34.630Z,101347
2014-09-12T22:11:52.833Z,101347
2014-09-12T22:12:11.039Z,101355
2014-09-12T22:12:29.226Z,101355
2014-09-12T22:12:47.414Z,101350
